createdAt,value
2018-03-27T00:02:19.866Z,73.40
2018-03-27T00:04:48.512Z,74.10
2018-03-27T00:07:17.165Z,74.40
2018-03-27T00:09:45.797Z,74.50
2018-03-27T00:12:14.496Z,74.60
2018-03-27T00:14:43.326Z,74.50
2018-03-27T00:17:13.987Z,74.50
2018-03-27T00:19:43.448Z,74.40
2018-03-27T00:22:12.054Z,74.40
2018-03-27T00:24:43.583Z,74.70
2018-03-27T00:27:11.470Z,74.90
2018-03-27T00:29:57.973Z,75.10
2018-03-27T00:32:44.409Z,75.10
2018-03-27T00:35:31.285Z,75.10
2018-03-27T00:38:17.703Z,75.50
2018-03-27T00:40:45.442Z,75.80
2018-03-27T00:43:14.109Z,75.80
2018-03-27T00:45:42.770Z,75.30
2018-03-27T00:48:11.833Z,75.40
2018-03-27T00:50:41.373Z,74.60
2018-03-27T00:53:10.633Z,73.70
2018-03-27T00:55:39.211Z,73.70
2018-03-27T00:58:07.897Z,74.90
2018-03-27T01:00:36.502Z,75.40
2018-03-27T01:03:05.103Z,75.40
2018-03-27T01:05:33.681Z,75.30
2018-03-27T01:08:02.404Z,75.70
2018-03-27T01:10:31.436Z,76.60
2018-03-27T01:12:59.980Z,76.50
2018-03-27T01:15:28.503Z,76.50
2018-03-27T01:17:57.915Z,76.70
2018-03-27T01:20:28.336Z,77.60
2018-03-27T01:22:57.254Z,76.90
2018-03-27T01:25:25.991Z,77.00
2018-03-27T01:27:55.346Z,77.50
2018-03-27T01:30:23.984Z,77.50
2018-03-27T01:32:52.645Z,77.70
2018-03-27T01:35:21.252Z,77.70
2018-03-27T01:37:49.932Z,78.00
2018-03-27T01:40:19.367Z,78.20
2018-03-27T01:42:47.975Z,78.20
2018-03-27T01:45:17.311Z,78.30
2018-03-27T01:47:45.906Z,78.30
2018-03-27T01:50:15.525Z,78.90
2018-03-27T01:52:45.492Z,79.40
2018-03-27T01:55:15.148Z,79.40
2018-03-27T01:57:43.884Z,79.50
2018-03-27T02:00:12.509Z,78.80
2018-03-27T02:02:41.079Z,79.10
2018-03-27T02:05:09.882Z,79.30
2018-03-27T02:07:38.422Z,79.30
2018-03-27T02:10:07.746Z,78.70
2018-03-27T02:12:41.810Z,78.60
2018-03-27T02:15:16.256Z,78.70
2018-03-27T02:17:50.769Z,78.40
2018-03-27T02:20:24.824Z,78.50
2018-03-27T02:26:01.517Z,78.60
2018-03-27T02:28:30.299Z,78.90
2018-03-27T02:30:59.314Z,79.20
2018-03-27T02:33:28.121Z,79.40
2018-03-27T02:35:57.352Z,79.50
2018-03-27T02:38:28.171Z,79.50
2018-03-27T02:40:56.813Z,79.60
2018-03-27T02:43:25.611Z,79.10
2018-03-27T02:45:54.199Z,78.70
2018-03-27T02:48:22.863Z,78.60
2018-03-27T02:50:51.854Z,78.60
2018-03-27T02:53:20.426Z,79.20
2018-03-27T02:55:49.015Z,79.20
2018-03-27T02:58:17.788Z,79.30
2018-03-27T03:00:46.443Z,78.90
2018-03-27T03:03:15.135Z,78.80
2018-03-27T03:05:44.500Z,79.10
2018-03-27T03:08:14.224Z,79.10
2018-03-27T03:10:43.827Z,79.40
2018-03-27T03:13:12.660Z,79.80
2018-03-27T03:15:41.471Z,80.20
2018-03-27T03:18:10.107Z,80.50
2018-03-27T03:20:38.793Z,80.50
2018-03-27T03:23:07.444Z,80.40
2018-03-27T03:25:35.984Z,80.30
2018-03-27T03:28:04.555Z,80.30
2018-03-27T03:30:34.061Z,80.60
2018-03-27T03:33:02.628Z,80.60
2018-03-27T03:35:31.344Z,80.20
2018-03-27T03:38:00.046Z,80.10
2018-03-27T03:40:28.846Z,79.90
2018-03-27T03:42:58.298Z,79.60
2018-03-27T03:45:27.077Z,79.40
2018-03-27T03:47:55.623Z,79.50
2018-03-27T03:50:24.332Z,79.20
2018-03-27T03:52:52.901Z,79.90
2018-03-27T03:55:21.531Z,80.20
2018-03-27T03:57:50.197Z,80.00
2018-03-27T04:00:18.791Z,80.00
2018-03-27T04:02:48.172Z,80.00
2018-03-27T04:05:16.904Z,80.00
2018-03-27T04:07:46.311Z,79.70
2018-03-27T04:10:14.966Z,79.60
2018-03-27T04:12:44.405Z,79.80
2018-03-27T04:15:13.341Z,80.00
2018-03-27T04:17:42.040Z,79.50
2018-03-27T04:20:10.706Z,79.80
2018-03-27T04:22:39.418Z,80.00
2018-03-27T04:25:08.018Z,80.00
2018-03-27T04:27:37.396Z,80.00
2018-03-27T04:30:06.117Z,80.00
2018-03-27T04:32:34.855Z,80.00
2018-03-27T04:35:03.691Z,80.30
2018-03-27T04:37:32.377Z,80.40
2018-03-27T04:40:01.132Z,80.50
2018-03-27T04:42:30.236Z,80.80
2018-03-27T04:44:59.146Z,80.70
2018-03-27T04:47:28.920Z,80.80
2018-03-27T04:49:58.262Z,81.50
2018-03-27T04:52:27.615Z,81.80
2018-03-27T04:54:56.336Z,81.70
2018-03-27T04:57:25.109Z,81.70
2018-03-27T04:59:54.022Z,81.60
2018-03-27T05:02:23.550Z,80.50
2018-03-27T05:04:52.259Z,80.50
2018-03-27T05:07:21.013Z,80.50
2018-03-27T05:09:49.738Z,81.00
2018-03-27T05:12:18.805Z,79.90
2018-03-27T05:14:48.163Z,79.20
2018-03-27T05:17:17.410Z,79.70
2018-03-27T05:19:46.815Z,80.10
2018-03-27T05:22:15.559Z,80.10
2018-03-27T05:24:44.243Z,80.10
2018-03-27T05:27:13.797Z,80.30
2018-03-27T05:29:42.758Z,80.30
2018-03-27T05:32:11.426Z,80.20
2018-03-27T05:34:40.045Z,80.10
2018-03-27T05:37:08.690Z,80.10
2018-03-27T05:39:37.338Z,80.40
2018-03-27T05:42:06.280Z,80.20
2018-03-27T05:44:35.170Z,80.60
2018-03-27T05:47:04.401Z,80.70
2018-03-27T05:49:33.436Z,80.30
2018-03-27T05:52:02.163Z,80.10
2018-03-27T05:54:30.759Z,80.10
2018-03-27T05:56:59.449Z,80.30
2018-03-27T05:59:28.043Z,80.10
2018-03-27T06:01:56.853Z,79.90
2018-03-27T06:04:25.585Z,79.10
2018-03-27T06:06:54.233Z,79.30
2018-03-27T06:09:23.629Z,78.10
2018-03-27T06:11:52.354Z,78.10
2018-03-27T06:14:22.599Z,76.30
2018-03-27T06:16:53.509Z,76.30
2018-03-27T06:19:22.811Z,75.80
2018-03-27T06:21:51.399Z,73.60
2018-03-27T06:24:20.822Z,72.50
2018-03-27T06:26:49.445Z,71.10
2018-03-27T06:29:18.037Z,69.70
2018-03-27T06:31:46.663Z,68.70
2018-03-27T06:34:15.239Z,67.60
2018-03-27T06:36:43.817Z,66.90
2018-03-27T06:39:13.079Z,67.20
2018-03-27T06:41:41.734Z,66.10
2018-03-27T06:44:10.353Z,65.10
2018-03-27T06:46:39.898Z,63.00
2018-03-27T06:49:09.233Z,63.00
2018-03-27T06:51:38.298Z,62.60
2018-03-27T06:54:06.949Z,61.90
2018-03-27T06:56:35.566Z,60.50
2018-03-27T06:59:04.212Z,60.20
2018-03-27T07:01:32.856Z,60.70
2018-03-27T07:04:01.519Z,60.40
2018-03-27T07:06:30.165Z,61.10
2018-03-27T07:08:59.651Z,58.50
2018-03-27T07:11:29.175Z,58.20
2018-03-27T07:13:58.688Z,58.80
2018-03-27T07:16:27.384Z,58.70
2018-03-27T07:18:57.127Z,60.60
2018-03-27T07:21:26.968Z,59.90
2018-03-27T07:23:55.574Z,59.90
2018-03-27T07:26:24.299Z,60.80
2018-03-27T07:28:53.705Z,59.00
2018-03-27T07:31:22.379Z,59.00
2018-03-27T07:33:51.059Z,59.10
2018-03-27T07:36:20.481Z,56.70
2018-03-27T07:38:49.207Z,56.70
2018-03-27T07:41:17.802Z,55.50
2018-03-27T07:43:46.594Z,53.40
2018-03-27T07:46:15.479Z,53.00
2018-03-27T07:48:45.296Z,51.60
2018-03-27T07:51:14.242Z,51.50
2018-03-27T07:53:43.064Z,51.50
2018-03-27T07:56:12.530Z,49.40
2018-03-27T07:58:41.131Z,49.40
2018-03-27T08:01:09.832Z,50.50
2018-03-27T08:03:38.502Z,50.50
2018-03-27T08:06:07.994Z,50.00
2018-03-27T08:08:37.115Z,49.40
2018-03-27T08:11:05.824Z,48.50
2018-03-27T08:13:34.547Z,47.70
2018-03-27T08:16:04.060Z,46.40
2018-03-27T08:18:33.208Z,46.40
2018-03-27T08:21:03.553Z,44.20
2018-03-27T08:23:33.198Z,44.10
2018-03-27T08:26:01.828Z,44.00
2018-03-27T08:28:30.476Z,42.40
2018-03-27T08:30:59.214Z,42.20
2018-03-27T08:33:28.631Z,40.60
2018-03-27T08:35:57.501Z,40.60
2018-03-27T08:38:26.118Z,39.30
2018-03-27T08:40:54.718Z,37.40
2018-03-27T08:43:23.381Z,35.20
2018-03-27T08:45:51.974Z,34.80
2018-03-27T08:48:21.416Z,35.50
2018-03-27T08:50:50.674Z,35.50
2018-03-27T08:53:19.870Z,35.10
2018-03-27T08:55:48.633Z,34.20
2018-03-27T08:58:18.074Z,32.60
2018-03-27T09:00:46.853Z,33.10
2018-03-27T09:03:16.280Z,31.90
2018-03-27T09:05:44.970Z,31.30
2018-03-27T09:08:13.679Z,30.90
2018-03-27T09:10:42.325Z,29.80
2018-03-27T09:13:10.920Z,29.80
2018-03-27T09:15:40.396Z,28.50
2018-03-27T09:18:10.402Z,27.80
2018-03-27T09:20:39.238Z,27.80
2018-03-27T09:23:08.202Z,27.80
2018-03-27T09:25:37.202Z,28.00
2018-03-27T09:28:05.910Z,26.70
2018-03-27T09:30:35.360Z,24.90
2018-03-27T09:33:04.109Z,24.90
2018-03-27T09:52:27.000Z,26.70
2018-03-27T09:54:55.646Z,28.60
2018-03-27T09:57:25.786Z,28.30
2018-03-27T09:59:54.654Z,28.20
2018-03-27T10:02:23.221Z,28.30
2018-03-27T10:04:51.836Z,28.10
2018-03-27T10:07:20.608Z,28.50
2018-03-27T10:09:49.605Z,29.20
2018-03-27T10:12:29.430Z,28.80
2018-03-27T10:14:58.106Z,28.80
2018-03-27T10:17:28.033Z,28.90
2018-03-27T10:19:57.046Z,28.30
2018-03-27T10:22:26.341Z,27.80
2018-03-27T10:24:55.924Z,28.20
2018-03-27T10:27:24.611Z,28.20
2018-03-27T10:29:53.192Z,27.80
2018-03-27T10:32:21.730Z,28.00
2018-03-27T10:34:50.363Z,28.00
2018-03-27T10:37:18.993Z,28.40
2018-03-27T10:39:48.465Z,29.30
2018-03-27T10:42:17.933Z,28.80
2018-03-27T10:44:46.486Z,28.80
2018-03-27T10:47:15.144Z,28.40
2018-03-27T10:49:43.969Z,28.90
2018-03-27T10:52:14.422Z,28.00
2018-03-27T10:54:43.969Z,27.80
2018-03-27T10:57:12.647Z,27.70
2018-03-27T10:59:42.069Z,25.40
2018-03-27T11:02:10.930Z,25.30
2018-03-27T11:04:39.424Z,24.50
2018-03-27T11:07:08.010Z,23.00
2018-03-27T11:09:36.868Z,21.20
2018-03-27T11:12:06.035Z,21.10
2018-03-27T11:14:34.632Z,20.70
2018-03-27T11:17:04.097Z,21.40
2018-03-27T11:19:33.426Z,21.30
2018-03-27T11:22:02.530Z,21.80
2018-03-27T11:24:31.449Z,21.20
2018-03-27T11:27:00.047Z,19.00
2018-03-27T11:29:28.748Z,18.90
2018-03-27T11:31:57.348Z,18.50
2018-03-27T11:34:26.099Z,19.30
2018-03-27T11:36:55.046Z,19.70
2018-03-27T11:39:23.783Z,19.60
2018-03-27T11:41:52.483Z,19.70
2018-03-27T11:44:21.124Z,19.70
2018-03-27T11:46:49.836Z,20.10
2018-03-27T11:49:18.548Z,19.20
2018-03-27T11:51:47.141Z,18.80
2018-03-27T11:54:17.793Z,18.70
2018-03-27T11:56:46.936Z,18.60
2018-03-27T11:59:15.658Z,18.00
2018-03-27T12:24:12.643Z,18.60
2018-03-27T12:29:57.755Z,18.80
2018-03-27T12:36:02.189Z,19.20
2018-03-27T12:38:31.304Z,19.00
2018-03-27T12:40:59.979Z,20.10
2018-03-27T12:43:28.600Z,20.20
2018-03-27T12:45:57.328Z,19.40
2018-03-27T12:48:26.232Z,19.80
2018-03-27T12:50:55.447Z,19.10
2018-03-27T12:53:25.074Z,18.50
2018-03-27T12:55:53.769Z,18.60
2018-03-27T12:58:22.558Z,17.90
2018-03-27T13:00:51.148Z,18.40
2018-03-27T13:03:20.634Z,19.70
2018-03-27T13:05:49.381Z,19.60
2018-03-27T13:08:19.284Z,20.30
2018-03-27T13:10:48.449Z,20.20
2018-03-27T13:13:19.340Z,20.00
2018-03-27T13:15:48.367Z,19.90
2018-03-27T13:18:18.042Z,19.40
2018-03-27T13:20:47.646Z,18.60
2018-03-27T13:23:16.245Z,18.60
2018-03-27T13:25:44.757Z,19.20
2018-03-27T13:28:13.337Z,20.00
2018-03-27T13:30:42.774Z,20.30
2018-03-27T13:33:11.675Z,20.30
2018-03-27T13:35:40.543Z,21.00
2018-03-27T13:38:09.453Z,21.60
2018-03-27T13:40:38.079Z,21.40
2018-03-27T13:43:06.859Z,21.80
2018-03-27T13:45:35.492Z,21.80
2018-03-27T13:48:04.274Z,22.80
2018-03-27T13:50:34.000Z,22.50
2018-03-27T13:53:03.611Z,21.80
2018-03-27T13:55:32.333Z,21.80
2018-03-27T13:58:01.867Z,22.00
2018-03-27T14:00:31.759Z,22.10
2018-03-27T14:03:01.106Z,22.10
2018-03-27T14:05:31.168Z,22.10
2018-03-27T14:07:59.914Z,22.00
2018-03-27T14:10:29.591Z,20.60
2018-03-27T14:12:58.232Z,21.10
2018-03-27T14:15:28.087Z,21.00
2018-03-27T14:17:57.515Z,20.90
2018-03-27T14:20:27.122Z,21.30
2018-03-27T14:22:55.966Z,21.60
2018-03-27T14:25:24.992Z,21.80
2018-03-27T14:27:54.032Z,22.00
2018-03-27T14:30:22.992Z,21.50
2018-03-27T14:32:52.450Z,21.90
2018-03-27T14:35:21.381Z,22.00
2018-03-27T14:37:50.173Z,22.10
2018-03-27T14:40:19.786Z,21.80
2018-03-27T14:42:48.482Z,21.30
2018-03-27T14:45:17.612Z,20.60
2018-03-27T14:47:47.019Z,19.90
2018-03-27T14:50:17.141Z,19.80
2018-03-27T14:52:46.015Z,20.20
2018-03-27T14:55:16.079Z,21.70
2018-03-27T14:57:44.988Z,21.70
2018-03-27T15:00:14.167Z,21.30
2018-03-27T15:02:43.711Z,22.60
2018-03-27T15:05:13.143Z,23.60
2018-03-27T15:07:42.911Z,23.60
2018-03-27T15:10:12.183Z,23.80
2018-03-27T15:12:42.450Z,24.50
2018-03-27T15:15:11.934Z,24.50
2018-03-27T15:17:40.992Z,23.70
2018-03-27T15:20:10.314Z,24.60
2018-03-27T15:22:39.040Z,23.10
2018-03-27T15:25:08.748Z,23.50
2018-03-27T15:27:37.402Z,24.10
2018-03-27T15:30:06.230Z,22.40
2018-03-27T15:32:36.499Z,22.60
2018-03-27T15:35:06.123Z,22.60
2018-03-27T15:37:34.887Z,22.90
2018-03-27T15:40:03.894Z,24.10
2018-03-27T15:42:32.498Z,23.90
2018-03-27T15:45:01.500Z,23.60
2018-03-27T15:47:31.716Z,25.40
2018-03-27T15:50:00.824Z,24.90
2018-03-27T15:52:35.693Z,24.70
2018-03-27T15:55:05.478Z,26.40
2018-03-27T15:57:35.044Z,27.30
2018-03-27T16:00:04.194Z,27.40
2018-03-27T16:02:33.855Z,28.00
2018-03-27T16:05:03.353Z,28.80
2018-03-27T16:07:32.307Z,28.80
2018-03-27T16:10:02.020Z,28.30
2018-03-27T16:12:32.078Z,27.90
2018-03-27T16:15:01.066Z,27.90
2018-03-27T16:17:30.819Z,26.70
2018-03-27T16:20:00.432Z,26.30
2018-03-27T16:22:29.590Z,26.30
2018-03-27T16:24:58.357Z,26.60
2018-03-27T16:27:27.901Z,26.80
2018-03-27T16:29:57.938Z,26.90
2018-03-27T16:32:27.633Z,26.80
2018-03-27T16:34:56.495Z,26.80
2018-03-27T16:37:25.974Z,27.40
2018-03-27T16:39:55.929Z,28.50
2018-03-27T16:42:25.644Z,28.50
2018-03-27T16:44:54.551Z,28.40
2018-03-27T16:47:23.454Z,28.70
2018-03-27T16:49:52.458Z,29.00
2018-03-27T16:52:21.657Z,29.20
2018-03-27T16:54:50.752Z,29.90
2018-03-27T16:57:19.834Z,32.00
2018-03-27T16:59:49.208Z,32.50
2018-03-27T17:02:18.213Z,32.90
2018-03-27T17:04:48.050Z,33.00
2018-03-27T17:07:18.262Z,33.00
2018-03-27T17:09:48.306Z,34.40
2018-03-27T17:12:17.337Z,34.40
2018-03-27T17:14:46.734Z,35.90
2018-03-27T17:17:16.555Z,35.00
2018-03-27T17:19:47.115Z,34.30
2018-03-27T17:22:16.937Z,34.50
2018-03-27T17:24:45.926Z,34.50
2018-03-27T17:27:16.503Z,35.10
2018-03-27T17:29:46.778Z,34.50
2018-03-27T17:32:16.785Z,35.00
2018-03-27T17:34:46.738Z,34.50
2018-03-27T17:37:15.926Z,34.40
2018-03-27T17:39:44.862Z,34.60
2018-03-27T17:42:13.864Z,34.40
2018-03-27T17:44:42.744Z,36.00
2018-03-27T17:47:11.661Z,36.80
2018-03-27T17:49:40.685Z,37.60
2018-03-27T17:52:09.797Z,38.00
2018-03-27T17:54:38.928Z,37.80
2018-03-27T17:57:08.054Z,38.30
2018-03-27T17:59:37.569Z,39.40
2018-03-27T18:02:08.330Z,39.80
2018-03-27T18:04:39.193Z,40.20
2018-03-27T18:07:10.553Z,40.10
2018-03-27T18:09:41.096Z,41.60
2018-03-27T18:12:10.980Z,41.50
2018-03-27T18:14:40.470Z,41.20
2018-03-27T18:17:10.102Z,41.20
2018-03-27T18:19:39.892Z,43.30
2018-03-27T18:22:09.176Z,42.70
2018-03-27T18:24:40.938Z,42.60
2018-03-27T18:27:10.984Z,43.10
2018-03-27T18:29:40.081Z,43.60
2018-03-27T18:32:11.452Z,43.60
2018-03-27T18:34:42.276Z,43.90
2018-03-27T18:37:12.558Z,43.80
2018-03-27T18:39:42.319Z,43.80
2018-03-27T18:42:12.207Z,44.10
2018-03-27T18:44:43.260Z,44.00
2018-03-27T18:47:14.996Z,45.30
2018-03-27T18:49:44.517Z,44.70
2018-03-27T18:52:14.117Z,44.90
2018-03-27T18:54:43.821Z,45.50
2018-03-27T18:57:15.360Z,45.40
2018-03-27T19:00:09.660Z,46.20
2018-03-27T19:02:39.842Z,45.70
2018-03-27T19:05:09.840Z,45.60
2018-03-27T19:07:41.149Z,46.00
2018-03-27T19:10:11.111Z,45.90
2018-03-27T19:12:41.781Z,46.10
2018-03-27T19:15:11.864Z,46.10
2018-03-27T19:17:41.924Z,46.20
2018-03-27T19:20:13.394Z,45.90
2018-03-27T19:22:56.524Z,45.80
2018-03-27T19:25:27.098Z,46.70
2018-03-27T19:27:56.890Z,46.20
2018-03-27T19:30:30.623Z,47.00
2018-03-27T19:33:00.046Z,47.60
2018-03-27T19:35:29.460Z,47.20
2018-03-27T19:37:59.495Z,48.40
2018-03-27T19:40:30.753Z,49.00
2018-03-27T19:43:00.508Z,48.60
2018-03-27T19:45:33.508Z,48.50
2018-03-27T19:48:06.897Z,48.10
2018-03-27T19:50:37.103Z,48.00
2018-03-27T19:53:07.221Z,47.20
2018-03-27T19:55:37.281Z,47.50
2018-03-27T19:58:07.281Z,46.80
2018-03-27T20:00:36.646Z,46.80
2018-03-27T20:03:06.671Z,46.80
2018-03-27T20:05:37.654Z,46.80
2018-03-27T20:08:08.676Z,47.90
2018-03-27T20:10:39.678Z,47.90
2018-03-27T20:13:09.873Z,49.60
2018-03-27T20:15:42.076Z,49.50
2018-03-27T20:18:11.095Z,49.60
2018-03-27T20:20:41.764Z,49.20
2018-03-27T20:23:11.572Z,49.20
2018-03-27T20:25:40.674Z,48.70
2018-03-27T20:28:12.657Z,47.90
2018-03-27T20:30:43.068Z,48.50
2018-03-27T20:33:14.872Z,46.50
2018-03-27T20:35:44.199Z,46.50
2018-03-27T20:38:13.637Z,45.90
2018-03-27T20:40:43.994Z,46.50
2018-03-27T20:43:14.791Z,46.80
2018-03-27T20:45:44.197Z,46.70
2018-03-27T20:48:13.823Z,47.40
2018-03-27T20:50:43.533Z,49.60
2018-03-27T20:53:14.311Z,52.00
2018-03-27T20:55:44.488Z,52.00
2018-03-27T20:58:13.820Z,53.00
2018-03-27T21:00:42.914Z,52.90
2018-03-27T21:03:11.978Z,53.10
2018-03-27T21:05:41.426Z,53.30
2018-03-27T21:08:11.434Z,53.20
2018-03-27T21:10:42.540Z,53.00
2018-03-27T21:13:12.703Z,54.80
2018-03-27T21:15:42.863Z,54.40
2018-03-27T21:18:13.636Z,54.50
2018-03-27T21:20:43.023Z,54.50
2018-03-27T21:23:12.472Z,54.60
2018-03-27T21:25:42.802Z,55.30
2018-03-27T21:28:12.115Z,55.20
2018-03-27T21:30:41.657Z,54.50
2018-03-27T21:33:11.190Z,54.70
2018-03-27T21:35:39.913Z,54.50
2018-03-27T21:38:09.776Z,54.90
2018-03-27T21:40:38.574Z,54.90
2018-03-27T21:43:08.532Z,55.00
2018-03-27T21:45:37.926Z,55.60
2018-03-27T21:48:07.245Z,55.80
2018-03-27T21:50:36.083Z,56.10
2018-03-27T21:53:05.420Z,56.60
2018-03-27T21:55:34.508Z,56.40
2018-03-27T21:58:03.514Z,56.60
2018-03-27T22:00:32.453Z,56.30
2018-03-27T22:03:01.149Z,56.30
2018-03-27T22:05:30.249Z,56.60
2018-03-27T22:07:59.694Z,56.60
2018-03-27T22:10:28.480Z,57.10
2018-03-27T22:12:57.729Z,57.10
2018-03-27T22:15:27.367Z,57.20
2018-03-27T22:17:57.073Z,57.40
2018-03-27T22:20:26.596Z,57.60
2018-03-27T22:22:56.053Z,57.60
2018-03-27T22:25:25.141Z,57.90
2018-03-27T22:27:54.062Z,58.80
2018-03-27T22:30:22.748Z,59.10
2018-03-27T22:32:51.763Z,59.50
2018-03-27T22:35:20.379Z,60.20
2018-03-27T22:37:49.192Z,61.20
2018-03-27T22:40:18.174Z,62.30
2018-03-27T22:42:47.133Z,62.80
2018-03-27T22:45:17.270Z,63.20
2018-03-27T22:47:47.103Z,62.60
2018-03-27T22:50:15.716Z,62.60
2018-03-27T22:52:44.723Z,63.10
2018-03-27T22:55:13.438Z,64.40
2018-03-27T22:57:42.295Z,64.90
2018-03-27T23:00:12.046Z,65.70
2018-03-27T23:02:41.214Z,65.70
2018-03-27T23:05:10.016Z,65.20
2018-03-27T23:07:38.831Z,66.60
2018-03-27T23:10:07.371Z,65.90
2018-03-27T23:12:36.320Z,66.30
2018-03-27T23:15:05.874Z,66.90
2018-03-27T23:17:35.938Z,69.90
2018-03-27T23:20:05.735Z,68.60
2018-03-27T23:22:34.548Z,68.40
2018-03-27T23:25:03.160Z,68.90
2018-03-27T23:27:32.668Z,70.90
2018-03-27T23:30:02.607Z,70.90
2018-03-27T23:32:32.119Z,70.60
2018-03-27T23:35:01.891Z,70.30
2018-03-27T23:37:30.628Z,70.30
2018-03-27T23:40:00.512Z,70.30
2018-03-27T23:42:29.810Z,70.30
2018-03-27T23:44:59.212Z,72.20
2018-03-27T23:47:28.822Z,73.70
2018-03-27T23:49:59.207Z,72.30
2018-03-27T23:52:28.447Z,72.30
2018-03-27T23:54:57.145Z,72.50
2018-03-27T23:57:25.815Z,74.50
2018-03-27T23:59:56.119Z,75.30
